sensor_id;sensor_type;location;lat;lon;timestamp;temperature;humidity
21950;DHT22;11139;51.284;7.226;2022-09-01T00:00:26;20.90;80.50
21950;DHT22;11139;51.284;7.226;2022-09-01T00:02:56;20.90;80.50
21950;DHT22;11139;51.284;7.226;2022-09-01T00:05:22;20.80;80.50
21950;DHT22;11139;51.284;7.226;2022-09-01T00:07:47;20.80;80.50
21950;DHT22;11139;51.284;7.226;2022-09-01T00:10:14;20.90;80.50
21950;DHT22;11139;51.284;7.226;2022-09-01T00:12:40;20.90;80.50
21950;DHT22;11139;51.284;7.226;2022-09-01T00:15:06;20.80;80.50
21950;DHT22;11139;51.284;7.226;2022-09-01T00:17:32;20.80;80.60
21950;DHT22;11139;51.284;7.226;2022-09-01T00:19:58;20.80;80.70
21950;DHT22;11139;51.284;7.226;2022-09-01T00:22:24;20.80;80.50
21950;DHT22;11139;51.284;7.226;2022-09-01T00:24:49;20.80;80.50
21950;DHT22;11139;51.284;7.226;2022-09-01T00:27:15;20.80;80.70
21950;DHT22;11139;51.284;7.226;2022-09-01T00:29:41;20.80;80.70
21950;DHT22;11139;51.284;7.226;2022-09-01T00:32:06;20.80;80.70
21950;DHT22;11139;51.284;7.226;2022-09-01T00:34:32;20.80;80.70
21950;DHT22;11139;51.284;7.226;2022-09-01T00:36:57;20.80;80.70
21950;DHT22;11139;51.284;7.226;2022-09-01T00:39:23;20.80;80.70
21950;DHT22;11139;51.284;7.226;2022-09-01T00:41:49;20.80;80.80
21950;DHT22;11139;51.284;7.226;2022-09-01T00:44:16;20.70;80.80
21950;DHT22;11139;51.284;7.226;2022-09-01T00:46:45;20.80;80.90
21950;DHT22;11139;51.284;7.226;2022-09-01T00:49:13;20.80;80.80
21950;DHT22;11139;51.284;7.226;2022-09-01T00:51:39;20.80;80.80
21950;DHT22;11139;51.284;7.226;2022-09-01T00:54:07;20.80;80.90
21950;DHT22;11139;51.284;7.226;2022-09-01T00:56:35;20.80;81.00
21950;DHT22;11139;51.284;7.226;2022-09-01T00:59:03;20.80;80.90
21950;DHT22;11139;51.284;7.226;2022-09-01T01:01:31;20.70;80.90
21950;DHT22;11139;51.284;7.226;2022-09-01T01:03:59;20.70;81.00
21950;DHT22;11139;51.284;7.226;2022-09-01T01:06:26;20.70;80.90
21950;DHT22;11139;51.284;7.226;2022-09-01T01:08:55;20.70;81.00
21950;DHT22;11139;51.284;7.226;2022-09-01T01:11:22;20.70;81.00
21950;DHT22;11139;51.284;7.226;2022-09-01T01:16:16;20.70;81.00
21950;DHT22;11139;51.284;7.226;2022-09-01T01:18:43;20.70;81.00
21950;DHT22;11139;51.284;7.226;2022-09-01T01:21:09;20.70;81.10
21950;DHT22;11139;51.284;7.226;2022-09-01T01:24:02;20.70;81.10
21950;DHT22;11139;51.284;7.226;2022-09-01T01:26:30;20.70;81.20
21950;DHT22;11139;51.284;7.226;2022-09-01T01:28:56;20.70;82.10
21950;DHT22;11139;51.284;7.226;2022-09-01T01:31:21;20.60;81.10
21950;DHT22;11139;51.284;7.226;2022-09-01T01:33:52;20.60;81.10
21950;DHT22;11139;51.284;7.226;2022-09-01T01:36:22;20.60;81.10
21950;DHT22;11139;51.284;7.226;2022-09-01T01:39:00;20.60;81.20
21950;DHT22;11139;51.284;7.226;2022-09-01T01:41:28;20.60;81.20
21950;DHT22;11139;51.284;7.226;2022-09-01T01:43:57;20.60;81.20
21950;DHT22;11139;51.284;7.226;2022-09-01T01:46:24;20.60;81.20
21950;DHT22;11139;51.284;7.226;2022-09-01T01:48:51;20.60;81.30
21950;DHT22;11139;51.284;7.226;2022-09-01T01:51:18;20.60;81.30
21950;DHT22;11139;51.284;7.226;2022-09-01T01:53:46;20.60;81.40
21950;DHT22;11139;51.284;7.226;2022-09-01T01:56:12;20.60;81.30
21950;DHT22;11139;51.284;7.226;2022-09-01T01:58:37;20.60;81.20
21950;DHT22;11139;51.284;7.226;2022-09-01T02:01:04;20.60;81.30
21950;DHT22;11139;51.284;7.226;2022-09-01T02:03:32;20.60;81.20
21950;DHT22;11139;51.284;7.226;2022-09-01T02:06:04;20.60;81.20
21950;DHT22;11139;51.284;7.226;2022-09-01T02:08:32;20.60;81.20
21950;DHT22;11139;51.284;7.226;2022-09-01T02:10:58;20.60;81.20
21950;DHT22;11139;51.284;7.226;2022-09-01T02:13:24;20.50;82.10
21950;DHT22;11139;51.284;7.226;2022-09-01T02:15:53;20.50;81.20
21950;DHT22;11139;51.284;7.226;2022-09-01T02:18:23;20.50;81.30
21950;DHT22;11139;51.284;7.226;2022-09-01T02:20:49;20.50;81.30
21950;DHT22;11139;51.284;7.226;2022-09-01T02:23:16;20.50;81.30
21950;DHT22;11139;51.284;7.226;2022-09-01T02:25:44;20.50;81.30
21950;DHT22;11139;51.284;7.226;2022-09-01T02:28:11;20.50;81.30
21950;DHT22;11139;51.284;7.226;2022-09-01T02:30:47;20.50;81.30
21950;DHT22;11139;51.284;7.226;2022-09-01T02:33:16;20.50;81.30
21950;DHT22;11139;51.284;7.226;2022-09-01T02:35:46;20.50;81.40
21950;DHT22;11139;51.284;7.226;2022-09-01T02:38:12;20.50;81.40
21950;DHT22;11139;51.284;7.226;2022-09-01T02:40:39;20.50;81.40
21950;DHT22;11139;51.284;7.226;2022-09-01T02:43:05;20.40;81.40
21950;DHT22;11139;51.284;7.226;2022-09-01T02:45:30;20.50;81.30
21950;DHT22;11139;51.284;7.226;2022-09-01T02:47:57;20.40;81.40
21950;DHT22;11139;51.284;7.226;2022-09-01T02:50:23;20.40;81.40
21950;DHT22;11139;51.284;7.226;2022-09-01T02:52:49;20.40;81.40
21950;DHT22;11139;51.284;7.226;2022-09-01T02:55:17;20.40;81.50
21950;DHT22;11139;51.284;7.226;2022-09-01T02:57:45;20.40;81.50
21950;DHT22;11139;51.284;7.226;2022-09-01T03:00:13;20.40;81.50
21950;DHT22;11139;51.284;7.226;2022-09-01T03:02:49;20.40;81.50
21950;DHT22;11139;51.284;7.226;2022-09-01T03:05:19;20.40;81.50
21950;DHT22;11139;51.284;7.226;2022-09-01T03:07:53;20.40;81.50
21950;DHT22;11139;51.284;7.226;2022-09-01T03:10:21;20.30;81.40
21950;DHT22;11139;51.284;7.226;2022-09-01T03:12:48;20.40;81.50
21950;DHT22;11139;51.284;7.226;2022-09-01T03:15:14;20.30;81.50
21950;DHT22;11139;51.284;7.226;2022-09-01T03:17:39;20.30;81.40
21950;DHT22;11139;51.284;7.226;2022-09-01T03:20:06;20.30;81.40
21950;DHT22;11139;51.284;7.226;2022-09-01T03:22:31;20.30;81.30
21950;DHT22;11139;51.284;7.226;2022-09-01T03:24:58;20.30;81.40
21950;DHT22;11139;51.284;7.226;2022-09-01T03:27:23;20.30;81.50
21950;DHT22;11139;51.284;7.226;2022-09-01T03:29:49;20.30;81.70
21950;DHT22;11139;51.284;7.226;2022-09-01T03:32:15;20.30;81.60
21950;DHT22;11139;51.284;7.226;2022-09-01T03:34:40;20.30;81.50
21950;DHT22;11139;51.284;7.226;2022-09-01T03:37:06;20.30;81.40
21950;DHT22;11139;51.284;7.226;2022-09-01T03:39:32;20.30;81.30
21950;DHT22;11139;51.284;7.226;2022-09-01T03:41:59;20.30;81.20
21950;DHT22;11139;51.284;7.226;2022-09-01T03:44:24;20.30;81.10
21950;DHT22;11139;51.284;7.226;2022-09-01T03:46:50;20.20;81.00
21950;DHT22;11139;51.284;7.226;2022-09-01T03:49:16;20.20;81.00
21950;DHT22;11139;51.284;7.226;2022-09-01T03:51:51;20.20;81.00
21950;DHT22;11139;51.284;7.226;2022-09-01T03:54:18;20.20;81.10
21950;DHT22;11139;51.284;7.226;2022-09-01T03:56:44;20.20;81.10
21950;DHT22;11139;51.284;7.226;2022-09-01T03:59:10;20.20;81.20
21950;DHT22;11139;51.284;7.226;2022-09-01T04:01:41;20.20;81.20
21950;DHT22;11139;51.284;7.226;2022-09-01T04:04:09;20.10;81.20
21950;DHT22;11139;51.284;7.226;2022-09-01T04:06:38;20.10;81.20
21950;DHT22;11139;51.284;7.226;2022-09-01T04:09:04;20.20;81.20
21950;DHT22;11139;51.284;7.226;2022-09-01T04:11:30;20.20;81.30
21950;DHT22;11139;51.284;7.226;2022-09-01T04:13:56;20.10;81.30
21950;DHT22;11139;51.284;7.226;2022-09-01T04:16:26;20.10;81.30
21950;DHT22;11139;51.284;7.226;2022-09-01T04:19:11;20.10;81.40
21950;DHT22;11139;51.284;7.226;2022-09-01T04:21:44;20.10;81.40
21950;DHT22;11139;51.284;7.226;2022-09-01T04:24:10;20.10;81.50
21950;DHT22;11139;51.284;7.226;2022-09-01T04:26:39;20.10;81.50
21950;DHT22;11139;51.284;7.226;2022-09-01T04:29:05;20.10;81.50
21950;DHT22;11139;51.284;7.226;2022-09-01T04:31:33;20.10;81.50
21950;DHT22;11139;51.284;7.226;2022-09-01T04:34:03;20.10;81.50
21950;DHT22;11139;51.284;7.226;2022-09-01T04:36:34;20.10;81.50
21950;DHT22;11139;51.284;7.226;2022-09-01T04:39:00;20.10;81.60
21950;DHT22;11139;51.284;7.226;2022-09-01T04:41:30;20.00;81.50
21950;DHT22;11139;51.284;7.226;2022-09-01T04:43:57;20.10;81.50
21950;DHT22;11139;51.284;7.226;2022-09-01T04:46:23;20.10;81.50
21950;DHT22;11139;51.284;7.226;2022-09-01T04:48:52;20.00;81.40
21950;DHT22;11139;51.284;7.226;2022-09-01T04:51:18;20.10;81.50
21950;DHT22;11139;51.284;7.226;2022-09-01T04:53:45;20.00;81.30
21950;DHT22;11139;51.284;7.226;2022-09-01T04:56:16;20.00;81.30
21950;DHT22;11139;51.284;7.226;2022-09-01T04:58:47;20.00;81.30
21950;DHT22;11139;51.284;7.226;2022-09-01T05:01:18;20.00;81.20
21950;DHT22;11139;51.284;7.226;2022-09-01T05:03:44;20.00;81.20
21950;DHT22;11139;51.284;7.226;2022-09-01T05:06:17;20.00;81.40
21950;DHT22;11139;51.284;7.226;2022-09-01T05:08:43;20.00;81.40
21950;DHT22;11139;51.284;7.226;2022-09-01T05:11:10;20.00;81.40
21950;DHT22;11139;51.284;7.226;2022-09-01T05:13:36;19.90;81.40
21950;DHT22;11139;51.284;7.226;2022-09-01T05:16:07;19.90;81.40
21950;DHT22;11139;51.284;7.226;2022-09-01T05:18:43;19.90;81.50
21950;DHT22;11139;51.284;7.226;2022-09-01T05:21:12;19.90;81.50
21950;DHT22;11139;51.284;7.226;2022-09-01T05:23:40;19.90;81.60
21950;DHT22;11139;51.284;7.226;2022-09-01T05:26:10;19.90;81.60
21950;DHT22;11139;51.284;7.226;2022-09-01T05:28:41;19.90;81.60
21950;DHT22;11139;51.284;7.226;2022-09-01T05:31:07;19.90;81.60
21950;DHT22;11139;51.284;7.226;2022-09-01T05:33:34;19.90;81.60
21950;DHT22;11139;51.284;7.226;2022-09-01T05:36:01;19.90;81.50
21950;DHT22;11139;51.284;7.226;2022-09-01T05:38:32;19.90;81.60
21950;DHT22;11139;51.284;7.226;2022-09-01T05:40:59;19.90;81.60
21950;DHT22;11139;51.284;7.226;2022-09-01T05:43:28;19.80;81.60
21950;DHT22;11139;51.284;7.226;2022-09-01T05:45:55;19.80;81.60
21950;DHT22;11139;51.284;7.226;2022-09-01T05:48:22;19.80;81.60
21950;DHT22;11139;51.284;7.226;2022-09-01T05:50:48;19.80;81.50
21950;DHT22;11139;51.284;7.226;2022-09-01T05:53:14;19.80;81.50
21950;DHT22;11139;51.284;7.226;2022-09-01T05:55:43;19.80;81.30
21950;DHT22;11139;51.284;7.226;2022-09-01T05:58:13;19.80;81.30
21950;DHT22;11139;51.284;7.226;2022-09-01T06:00:41;19.80;81.40
21950;DHT22;11139;51.284;7.226;2022-09-01T06:03:07;19.80;81.40
21950;DHT22;11139;51.284;7.226;2022-09-01T06:05:33;19.80;81.30
21950;DHT22;11139;51.284;7.226;2022-09-01T06:08:01;19.80;81.30
21950;DHT22;11139;51.284;7.226;2022-09-01T06:10:27;19.80;81.30
21950;DHT22;11139;51.284;7.226;2022-09-01T06:12:53;19.80;81.40
21950;DHT22;11139;51.284;7.226;2022-09-01T06:15:19;19.70;81.40
21950;DHT22;11139;51.284;7.226;2022-09-01T06:17:45;19.70;81.40
21950;DHT22;11139;51.284;7.226;2022-09-01T06:20:11;19.70;81.40
21950;DHT22;11139;51.284;7.226;2022-09-01T06:22:36;19.70;81.40
21950;DHT22;11139;51.284;7.226;2022-09-01T06:25:03;19.70;81.50
21950;DHT22;11139;51.284;7.226;2022-09-01T06:27:33;19.70;81.40
21950;DHT22;11139;51.284;7.226;2022-09-01T06:30:04;19.70;81.40
21950;DHT22;11139;51.284;7.226;2022-09-01T06:32:39;19.70;81.40
21950;DHT22;11139;51.284;7.226;2022-09-01T06:35:12;19.70;81.40
21950;DHT22;11139;51.284;7.226;2022-09-01T06:37:38;19.70;81.40
21950;DHT22;11139;51.284;7.226;2022-09-01T06:40:04;19.70;81.40
21950;DHT22;11139;51.284;7.226;2022-09-01T06:42:30;19.60;81.30
21950;DHT22;11139;51.284;7.226;2022-09-01T06:45:02;19.70;81.30
21950;DHT22;11139;51.284;7.226;2022-09-01T06:47:28;19.70;81.40
21950;DHT22;11139;51.284;7.226;2022-09-01T06:49:54;19.70;81.40
21950;DHT22;11139;51.284;7.226;2022-09-01T06:52:23;19.70;81.50
21950;DHT22;11139;51.284;7.226;2022-09-01T06:54:49;19.70;81.50
21950;DHT22;11139;51.284;7.226;2022-09-01T06:57:17;19.70;81.50
21950;DHT22;11139;51.284;7.226;2022-09-01T06:59:43;19.60;81.50
21950;DHT22;11139;51.284;7.226;2022-09-01T07:02:08;19.60;81.50
21950;DHT22;11139;51.284;7.226;2022-09-01T07:04:40;19.60;81.50
21950;DHT22;11139;51.284;7.226;2022-09-01T07:07:08;19.60;81.50
21950;DHT22;11139;51.284;7.226;2022-09-01T07:09:34;19.60;81.50
21950;DHT22;11139;51.284;7.226;2022-09-01T07:12:00;19.60;81.50
21950;DHT22;11139;51.284;7.226;2022-09-01T07:14:28;19.60;81.50
21950;DHT22;11139;51.284;7.226;2022-09-01T07:16:54;19.60;81.60
21950;DHT22;11139;51.284;7.226;2022-09-01T07:19:20;19.60;81.60
21950;DHT22;11139;51.284;7.226;2022-09-01T07:21:45;19.60;81.60
21950;DHT22;11139;51.284;7.226;2022-09-01T07:24:11;19.60;81.50
21950;DHT22;11139;51.284;7.226;2022-09-01T07:26:37;19.60;81.50
21950;DHT22;11139;51.284;7.226;2022-09-01T07:29:05;19.60;81.40
21950;DHT22;11139;51.284;7.226;2022-09-01T07:31:34;19.60;81.30
21950;DHT22;11139;51.284;7.226;2022-09-01T07:34:01;19.60;81.30
21950;DHT22;11139;51.284;7.226;2022-09-01T07:36:28;19.60;81.30
21950;DHT22;11139;51.284;7.226;2022-09-01T07:38:54;19.60;81.30
21950;DHT22;11139;51.284;7.226;2022-09-01T07:41:20;19.60;81.30
21950;DHT22;11139;51.284;7.226;2022-09-01T07:43:46;19.60;81.10
21950;DHT22;11139;51.284;7.226;2022-09-01T07:46:13;19.60;80.90
21950;DHT22;11139;51.284;7.226;2022-09-01T07:48:39;19.60;81.00
21950;DHT22;11139;51.284;7.226;2022-09-01T07:51:04;19.60;81.00
21950;DHT22;11139;51.284;7.226;2022-09-01T07:53:31;19.60;80.90
21950;DHT22;11139;51.284;7.226;2022-09-01T07:55:59;19.60;81.70
21950;DHT22;11139;51.284;7.226;2022-09-01T07:58:31;19.60;80.90
21950;DHT22;11139;51.284;7.226;2022-09-01T08:00:57;19.60;80.80
21950;DHT22;11139;51.284;7.226;2022-09-01T08:03:27;19.60;80.70
21950;DHT22;11139;51.284;7.226;2022-09-01T08:05:53;19.60;80.70
21950;DHT22;11139;51.284;7.226;2022-09-01T08:08:22;19.60;80.70
21950;DHT22;11139;51.284;7.226;2022-09-01T08:10:48;19.50;80.40
21950;DHT22;11139;51.284;7.226;2022-09-01T08:13:14;19.50;80.20
21950;DHT22;11139;51.284;7.226;2022-09-01T08:15:39;19.50;80.00
21950;DHT22;11139;51.284;7.226;2022-09-01T08:18:05;19.50;79.70
21950;DHT22;11139;51.284;7.226;2022-09-01T08:20:31;19.50;79.80
21950;DHT22;11139;51.284;7.226;2022-09-01T08:22:59;19.50;79.80
21950;DHT22;11139;51.284;7.226;2022-09-01T08:25:26;19.50;79.90
21950;DHT22;11139;51.284;7.226;2022-09-01T08:27:52;19.50;79.20
21950;DHT22;11139;51.284;7.226;2022-09-01T08:30:17;19.50;78.80
21950;DHT22;11139;51.284;7.226;2022-09-01T08:32:43;19.50;78.60
21950;DHT22;11139;51.284;7.226;2022-09-01T08:35:09;19.50;78.50
21950;DHT22;11139;51.284;7.226;2022-09-01T08:37:35;19.50;78.40
21950;DHT22;11139;51.284;7.226;2022-09-01T08:40:01;19.50;78.50
21950;DHT22;11139;51.284;7.226;2022-09-01T08:45:20;19.50;78.60
21950;DHT22;11139;51.284;7.226;2022-09-01T08:47:47;19.40;78.30
21950;DHT22;11139;51.284;7.226;2022-09-01T08:50:13;19.40;78.70
21950;DHT22;11139;51.284;7.226;2022-09-01T08:52:41;19.50;78.50
21950;DHT22;11139;51.284;7.226;2022-09-01T08:55:23;19.50;78.70
21950;DHT22;11139;51.284;7.226;2022-09-01T08:57:51;19.50;78.60
21950;DHT22;11139;51.284;7.226;2022-09-01T09:00:24;19.50;78.40
21950;DHT22;11139;51.284;7.226;2022-09-01T09:02:52;19.40;78.00
21950;DHT22;11139;51.284;7.226;2022-09-01T09:11:08;19.40;77.50
21950;DHT22;11139;51.284;7.226;2022-09-01T09:13:40;19.50;77.50
21950;DHT22;11139;51.284;7.226;2022-09-01T09:16:19;19.40;77.50
21950;DHT22;11139;51.284;7.226;2022-09-01T09:18:50;19.40;77.70
21950;DHT22;11139;51.284;7.226;2022-09-01T09:23:56;19.50;78.20
21950;DHT22;11139;51.284;7.226;2022-09-01T09:26:23;19.40;77.70
21950;DHT22;11139;51.284;7.226;2022-09-01T09:28:48;19.50;77.90
21950;DHT22;11139;51.284;7.226;2022-09-01T09:33:55;19.40;77.60
21950;DHT22;11139;51.284;7.226;2022-09-01T09:36:32;19.40;78.00
21950;DHT22;11139;51.284;7.226;2022-09-01T09:39:03;19.40;78.30
21950;DHT22;11139;51.284;7.226;2022-09-01T09:41:29;19.40;77.80
21950;DHT22;11139;51.284;7.226;2022-09-01T09:51:34;19.50;77.50
21950;DHT22;11139;51.284;7.226;2022-09-01T09:57:02;19.40;77.20
21950;DHT22;11139;51.284;7.226;2022-09-01T09:59:32;19.50;77.50
21950;DHT22;11139;51.284;7.226;2022-09-01T10:02:12;19.50;77.60
21950;DHT22;11139;51.284;7.226;2022-09-01T10:04:39;19.50;77.90
21950;DHT22;11139;51.284;7.226;2022-09-01T10:07:21;19.40;77.30
21950;DHT22;11139;51.284;7.226;2022-09-01T10:09:48;19.50;76.90
21950;DHT22;11139;51.284;7.226;2022-09-01T10:12:13;19.50;76.90
21950;DHT22;11139;51.284;7.226;2022-09-01T10:14:47;19.50;75.80
21950;DHT22;11139;51.284;7.226;2022-09-01T10:17:16;19.50;76.90
21950;DHT22;11139;51.284;7.226;2022-09-01T10:19:48;19.50;77.60
21950;DHT22;11139;51.284;7.226;2022-09-01T10:22:14;19.50;77.20
21950;DHT22;11139;51.284;7.226;2022-09-01T10:24:39;19.50;76.50
21950;DHT22;11139;51.284;7.226;2022-09-01T10:27:27;19.50;75.20
21950;DHT22;11139;51.284;7.226;2022-09-01T10:30:13;19.50;75.60
21950;DHT22;11139;51.284;7.226;2022-09-01T10:32:41;19.50;76.60
21950;DHT22;11139;51.284;7.226;2022-09-01T10:35:09;19.50;77.00
21950;DHT22;11139;51.284;7.226;2022-09-01T10:37:37;19.50;77.10
21950;DHT22;11139;51.284;7.226;2022-09-01T10:42:48;19.50;76.50
21950;DHT22;11139;51.284;7.226;2022-09-01T10:45:28;19.50;77.00
21950;DHT22;11139;51.284;7.226;2022-09-01T10:47:55;19.50;76.70
21950;DHT22;11139;51.284;7.226;2022-09-01T10:50:22;19.50;76.50
21950;DHT22;11139;51.284;7.226;2022-09-01T10:57:41;19.40;77.10
21950;DHT22;11139;51.284;7.226;2022-09-01T11:03:04;19.50;76.90
21950;DHT22;11139;51.284;7.226;2022-09-01T11:05:50;19.50;76.50
21950;DHT22;11139;51.284;7.226;2022-09-01T11:08:38;19.50;76.80
21950;DHT22;11139;51.284;7.226;2022-09-01T11:18:43;19.50;76.70
21950;DHT22;11139;51.284;7.226;2022-09-01T11:23:40;20.00;70.80
21950;DHT22;11139;51.284;7.226;2022-09-01T11:28:50;19.90;72.40
21950;DHT22;11139;51.284;7.226;2022-09-01T11:31:24;19.80;73.30
21950;DHT22;11139;51.284;7.226;2022-09-01T11:36:26;19.70;73.30
21950;DHT22;11139;51.284;7.226;2022-09-01T11:41:23;19.70;74.10
21950;DHT22;11139;51.284;7.226;2022-09-01T11:43:50;19.70;74.30
21950;DHT22;11139;51.284;7.226;2022-09-01T11:46:21;19.70;74.60
21950;DHT22;11139;51.284;7.226;2022-09-01T11:48:49;19.70;74.70
21950;DHT22;11139;51.284;7.226;2022-09-01T11:51:14;19.70;74.50
21950;DHT22;11139;51.284;7.226;2022-09-01T11:53:41;19.70;74.70
21950;DHT22;11139;51.284;7.226;2022-09-01T11:56:17;19.70;75.00
21950;DHT22;11139;51.284;7.226;2022-09-01T11:58:44;19.70;75.10
21950;DHT22;11139;51.284;7.226;2022-09-01T12:01:17;19.70;75.20
21950;DHT22;11139;51.284;7.226;2022-09-01T12:03:43;19.60;75.30
21950;DHT22;11139;51.284;7.226;2022-09-01T12:06:11;19.60;75.20
21950;DHT22;11139;51.284;7.226;2022-09-01T12:08:38;19.60;75.20
21950;DHT22;11139;51.284;7.226;2022-09-01T12:11:08;19.70;75.50
21950;DHT22;11139;51.284;7.226;2022-09-01T12:13:34;19.60;75.30
21950;DHT22;11139;51.284;7.226;2022-09-01T12:16:04;19.70;75.40
21950;DHT22;11139;51.284;7.226;2022-09-01T12:18:32;19.60;75.10
21950;DHT22;11139;51.284;7.226;2022-09-01T12:21:00;19.70;75.20
21950;DHT22;11139;51.284;7.226;2022-09-01T12:23:27;19.70;75.70
21950;DHT22;11139;51.284;7.226;2022-09-01T12:25:54;19.60;74.90
21950;DHT22;11139;51.284;7.226;2022-09-01T12:28:20;19.60;75.50
21950;DHT22;11139;51.284;7.226;2022-09-01T12:30:48;19.60;75.30
21950;DHT22;11139;51.284;7.226;2022-09-01T12:33:14;19.60;75.40
21950;DHT22;11139;51.284;7.226;2022-09-01T12:35:43;19.60;76.00
21950;DHT22;11139;51.284;7.226;2022-09-01T12:38:42;19.60;75.80
21950;DHT22;11139;51.284;7.226;2022-09-01T12:41:01;19.70;76.00
21950;DHT22;11139;51.284;7.226;2022-09-01T12:43:31;19.70;76.00
21950;DHT22;11139;51.284;7.226;2022-09-01T12:45:58;19.70;76.10
21950;DHT22;11139;51.284;7.226;2022-09-01T12:48:26;19.60;75.60
21950;DHT22;11139;51.284;7.226;2022-09-01T12:50:53;19.70;75.70
21950;DHT22;11139;51.284;7.226;2022-09-01T12:53:20;19.60;75.80
21950;DHT22;11139;51.284;7.226;2022-09-01T12:55:54;19.60;75.70
21950;DHT22;11139;51.284;7.226;2022-09-01T12:58:21;19.70;76.00
21950;DHT22;11139;51.284;7.226;2022-09-01T13:00:59;19.70;76.10
21950;DHT22;11139;51.284;7.226;2022-09-01T13:03:24;19.70;76.30
21950;DHT22;11139;51.284;7.226;2022-09-01T13:05:56;19.60;76.30
21950;DHT22;11139;51.284;7.226;2022-09-01T13:08:30;19.70;76.40
21950;DHT22;11139;51.284;7.226;2022-09-01T13:11:04;19.70;76.40
21950;DHT22;11139;51.284;7.226;2022-09-01T13:13:30;19.70;76.30
21950;DHT22;11139;51.284;7.226;2022-09-01T13:15:56;19.70;76.30
21950;DHT22;11139;51.284;7.226;2022-09-01T13:18:26;19.70;76.30
21950;DHT22;11139;51.284;7.226;2022-09-01T13:20:52;19.80;76.30
21950;DHT22;11139;51.284;7.226;2022-09-01T13:23:18;19.80;76.20
21950;DHT22;11139;51.284;7.226;2022-09-01T13:25:44;19.80;76.30
21950;DHT22;11139;51.284;7.226;2022-09-01T13:28:11;19.80;76.30
21950;DHT22;11139;51.284;7.226;2022-09-01T13:30:37;19.80;76.20
21950;DHT22;11139;51.284;7.226;2022-09-01T13:33:02;19.80;76.00
21950;DHT22;11139;51.284;7.226;2022-09-01T13:35:28;19.90;75.70
21950;DHT22;11139;51.284;7.226;2022-09-01T13:37:53;20.00;74.40
21950;DHT22;11139;51.284;7.226;2022-09-01T13:40:20;20.00;74.60
21950;DHT22;11139;51.284;7.226;2022-09-01T13:42:46;19.90;75.00
21950;DHT22;11139;51.284;7.226;2022-09-01T13:45:12;19.90;74.80
21950;DHT22;11139;51.284;7.226;2022-09-01T13:47:38;20.40;72.70
21950;DHT22;11139;51.284;7.226;2022-09-01T13:50:04;20.60;72.00
21950;DHT22;11139;51.284;7.226;2022-09-01T13:52:30;21.20;70.80
21950;DHT22;11139;51.284;7.226;2022-09-01T13:54:55;21.50;70.00
21950;DHT22;11139;51.284;7.226;2022-09-01T13:57:21;21.50;70.00
21950;DHT22;11139;51.284;7.226;2022-09-01T13:59:46;21.50;72.50
21950;DHT22;11139;51.284;7.226;2022-09-01T14:02:11;21.60;72.10
21950;DHT22;11139;51.284;7.226;2022-09-01T14:04:37;21.60;71.80
21950;DHT22;11139;51.284;7.226;2022-09-01T14:07:03;21.50;71.60
21950;DHT22;11139;51.284;7.226;2022-09-01T14:09:28;21.60;71.40
21950;DHT22;11139;51.284;7.226;2022-09-01T14:11:54;21.50;71.10
21950;DHT22;11139;51.284;7.226;2022-09-01T14:14:20;21.50;70.70
21950;DHT22;11139;51.284;7.226;2022-09-01T14:16:45;21.50;70.20
21950;DHT22;11139;51.284;7.226;2022-09-01T14:19:11;21.50;70.00
21950;DHT22;11139;51.284;7.226;2022-09-01T14:21:37;21.50;70.30
21950;DHT22;11139;51.284;7.226;2022-09-01T14:24:03;21.50;70.40
21950;DHT22;11139;51.284;7.226;2022-09-01T14:26:28;21.50;70.60
21950;DHT22;11139;51.284;7.226;2022-09-01T14:28:54;21.50;70.60
21950;DHT22;11139;51.284;7.226;2022-09-01T14:31:20;21.50;70.70
21950;DHT22;11139;51.284;7.226;2022-09-01T14:33:46;21.50;70.80
21950;DHT22;11139;51.284;7.226;2022-09-01T14:36:15;21.50;70.80
21950;DHT22;11139;51.284;7.226;2022-09-01T14:38:41;21.50;70.80
21950;DHT22;11139;51.284;7.226;2022-09-01T14:41:07;21.40;70.50
21950;DHT22;11139;51.284;7.226;2022-09-01T14:43:32;21.40;70.50
21950;DHT22;11139;51.284;7.226;2022-09-01T14:46:04;21.40;70.60
21950;DHT22;11139;51.284;7.226;2022-09-01T14:48:31;21.40;70.70
21950;DHT22;11139;51.284;7.226;2022-09-01T14:50:56;21.40;70.20
21950;DHT22;11139;51.284;7.226;2022-09-01T14:53:23;21.40;70.00
21950;DHT22;11139;51.284;7.226;2022-09-01T14:55:49;21.40;70.20
21950;DHT22;11139;51.284;7.226;2022-09-01T14:58:14;21.40;70.50
21950;DHT22;11139;51.284;7.226;2022-09-01T15:00:41;21.30;71.40
21950;DHT22;11139;51.284;7.226;2022-09-01T15:03:07;21.30;70.50
21950;DHT22;11139;51.284;7.226;2022-09-01T15:05:34;21.40;70.80
21950;DHT22;11139;51.284;7.226;2022-09-01T15:08:00;21.30;70.90
21950;DHT22;11139;51.284;7.226;2022-09-01T15:10:26;21.30;70.70
21950;DHT22;11139;51.284;7.226;2022-09-01T15:12:53;21.30;70.20
21950;DHT22;11139;51.284;7.226;2022-09-01T15:15:18;21.40;70.20
21950;DHT22;11139;51.284;7.226;2022-09-01T15:17:44;21.40;70.60
21950;DHT22;11139;51.284;7.226;2022-09-01T15:20:09;21.30;70.50
21950;DHT22;11139;51.284;7.226;2022-09-01T15:22:54;21.40;70.70
21950;DHT22;11139;51.284;7.226;2022-09-01T15:25:20;21.30;70.70
21950;DHT22;11139;51.284;7.226;2022-09-01T15:27:46;21.30;70.80
21950;DHT22;11139;51.284;7.226;2022-09-01T15:30:12;21.30;70.80
21950;DHT22;11139;51.284;7.226;2022-09-01T15:32:44;21.30;70.50
21950;DHT22;11139;51.284;7.226;2022-09-01T15:35:11;21.40;70.70
21950;DHT22;11139;51.284;7.226;2022-09-01T15:37:37;21.40;70.70
21950;DHT22;11139;51.284;7.226;2022-09-01T15:40:03;21.40;70.70
21950;DHT22;11139;51.284;7.226;2022-09-01T15:42:29;21.40;70.90
21950;DHT22;11139;51.284;7.226;2022-09-01T15:44:55;21.30;70.80
21950;DHT22;11139;51.284;7.226;2022-09-01T15:47:21;21.40;71.10
21950;DHT22;11139;51.284;7.226;2022-09-01T15:49:46;21.40;71.20
21950;DHT22;11139;51.284;7.226;2022-09-01T15:52:12;21.40;70.40
21950;DHT22;11139;51.284;7.226;2022-09-01T15:54:37;21.40;69.80
21950;DHT22;11139;51.284;7.226;2022-09-01T15:57:03;21.40;70.20
21950;DHT22;11139;51.284;7.226;2022-09-01T15:59:29;21.30;70.80
21950;DHT22;11139;51.284;7.226;2022-09-01T16:01:55;21.30;70.70
21950;DHT22;11139;51.284;7.226;2022-09-01T16:04:20;21.30;69.80
21950;DHT22;11139;51.284;7.226;2022-09-01T16:06:46;21.30;69.80
21950;DHT22;11139;51.284;7.226;2022-09-01T16:09:11;21.40;66.90
21950;DHT22;11139;51.284;7.226;2022-09-01T16:11:38;21.40;66.50
21950;DHT22;11139;51.284;7.226;2022-09-01T16:14:03;21.30;68.20
21950;DHT22;11139;51.284;7.226;2022-09-01T16:19:04;21.10;69.10
21950;DHT22;11139;51.284;7.226;2022-09-01T16:24:08;21.10;69.00
21950;DHT22;11139;51.284;7.226;2022-09-01T16:26:34;21.10;68.90
21950;DHT22;11139;51.284;7.226;2022-09-01T16:29:00;21.00;69.70
21950;DHT22;11139;51.284;7.226;2022-09-01T16:31:28;20.90;70.40
21950;DHT22;11139;51.284;7.226;2022-09-01T16:33:55;20.90;70.80